Time;durP1;ratioP1;P1;durP2;ratioP2;P2;SDS_P1;SDS_P2;PMS_P1;PMS_P2;Temp;Humidity;BMP_temperature;BMP_pressure;BME280_temperature;BME280_humidity;BME280_pressure;Samples;Min_cycle;Max_cycle;Signal;HPM_P1;HPM_P2
2023/01/20 00:00:26;;;;;;;9.93;6.63;;;4.90;99.30;;;;;;4926273;28;20719;-87
2023/01/20 00:03:03;;;;;;;9.27;7.00;;;4.70;99.60;;;;;;4949934;28;20470;-86
2023/01/20 00:05:56;;;;;;;10.40;6.83;;;4.70;99.90;;;;;;4950916;28;20470;-87
2023/01/20 00:08:31;;;;;;;9.33;7.03;;;4.60;99.90;;;;;;4935018;28;20500;-87
2023/01/20 00:11:11;;;;;;;9.67;6.60;;;4.50;99.90;;;;;;4936147;28;20487;-87
2023/01/20 00:14:02;;;;;;;10.23;7.50;;;4.40;99.90;;;;;;4951012;28;20445;-87
2023/01/20 00:16:45;;;;;;;10.20;6.70;;;4.30;99.90;;;;;;4950856;28;20538;-87
2023/01/20 00:19:41;;;;;;;11.03;6.90;;;4.40;99.90;;;;;;4935653;28;20493;-87
2023/01/20 00:22:38;;;;;;;11.27;7.13;;;4.30;99.90;;;;;;4932509;28;21424;-86
2023/01/20 00:25:21;;;;;;;7.13;6.43;;;4.30;99.90;;;;;;4931610;29;20455;-86
2023/01/20 00:28:16;;;;;;;10.27;7.97;;;4.40;99.90;;;;;;4935069;28;20502;-88
2023/01/20 00:31:12;;;;;;;8.97;6.27;;;4.40;99.90;;;;;;4932633;29;20470;-86
2023/01/20 00:33:59;;;;;;;9.10;6.83;;;4.40;99.90;;;;;;4930286;28;20459;-88
2023/01/20 00:36:40;;;;;;;8.27;6.90;;;4.50;99.90;;;;;;4924839;29;20453;-86
2023/01/20 00:39:22;;;;;;;10.27;7.57;;;4.40;99.90;;;;;;4925047;29;20503;-87
2023/01/20 00:42:05;;;;;;;11.13;7.00;;;4.30;99.90;;;;;;4925639;29;20468;-86
2023/01/20 00:44:52;;;;;;;9.67;7.80;;;4.30;99.90;;;;;;4914702;29;21865;-88
2023/01/20 00:47:31;;;;;;;12.13;7.57;;;4.30;99.90;;;;;;4929909;29;20530;-87
2023/01/20 00:50:16;;;;;;;10.20;6.90;;;4.20;99.90;;;;;;4942682;29;20442;-87
2023/01/20 00:53:05;;;;;;;9.83;6.73;;;4.40;99.90;;;;;;4939425;29;20575;-87
2023/01/20 00:55:43;;;;;;;12.00;6.87;;;4.30;99.90;;;;;;4927139;29;20476;-85
2023/01/20 00:58:30;;;;;;;10.77;7.40;;;4.20;99.90;;;;;;4930603;29;20486;-86
2023/01/20 01:00:57;;;;;;;11.40;7.73;;;4.20;99.90;;;;;;4947947;29;20464;-89
2023/01/20 01:03:45;;;;;;;11.33;6.90;;;4.10;99.90;;;;;;4931369;29;20470;-86
2023/01/20 01:07:00;;;;;;;9.77;6.90;;;4.20;99.90;;;;;;4924421;29;20467;-86
2023/01/20 01:09:37;;;;;;;11.60;8.47;;;4.10;99.90;;;;;;4929288;28;20539;-86
2023/01/20 01:12:16;;;;;;;12.17;7.27;;;4.20;99.90;;;;;;4928795;29;20435;-85
2023/01/20 01:15:02;;;;;;;15.60;7.37;;;4.40;99.90;;;;;;4936339;29;20451;-85
2023/01/20 01:17:48;;;;;;;13.73;7.63;;;4.70;99.90;;;;;;4925265;29;20505;-85
2023/01/20 01:20:16;;;;;;;11.97;7.60;;;4.80;99.90;;;;;;4943153;29;20467;-87
2023/01/20 01:22:51;;;;;;;9.83;7.47;;;4.70;99.90;;;;;;4930983;29;20494;-88
2023/01/20 01:25:21;;;;;;;11.63;7.50;;;4.40;99.90;;;;;;4923974;29;20636;-88
2023/01/20 01:27:55;;;;;;;11.60;7.30;;;4.30;99.90;;;;;;4937532;29;20665;-87
2023/01/20 01:30:34;;;;;;;12.70;8.13;;;4.50;99.90;;;;;;4917534;29;20454;-88
2023/01/20 01:33:10;;;;;;;11.80;7.77;;;4.60;99.90;;;;;;4940192;29;20525;-88
2023/01/20 01:35:48;;;;;;;10.77;7.30;;;4.60;99.90;;;;;;4926444;29;20517;-87
2023/01/20 01:38:31;;;;;;;12.00;7.60;;;4.50;99.90;;;;;;4923832;29;20517;-88
2023/01/20 01:41:07;;;;;;;13.30;7.90;;;4.40;99.90;;;;;;4923740;29;20455;-88
2023/01/20 01:43:37;;;;;;;11.70;8.00;;;4.40;99.90;;;;;;4920198;29;21219;-86
2023/01/20 01:46:26;;;;;;;10.30;7.10;;;4.40;99.90;;;;;;4918237;29;20466;-88
2023/01/20 01:49:10;;;;;;;11.80;7.67;;;4.30;99.90;;;;;;4920499;29;20499;-86
2023/01/20 01:52:20;;;;;;;12.00;7.43;;;4.10;99.90;;;;;;4922653;29;20463;-88
2023/01/20 01:55:10;;;;;;;14.60;7.97;;;4.10;99.90;;;;;;4929607;29;20531;-87
2023/01/20 01:57:47;;;;;;;9.67;7.90;;;4.10;99.90;;;;;;4928524;28;20506;-83
2023/01/20 02:00:28;;;;;;;13.17;8.63;;;4.10;99.90;;;;;;4930780;28;20552;-90
2023/01/20 02:03:03;;;;;;;11.00;8.40;;;4.00;99.90;;;;;;4928082;28;20477;-87
2023/01/20 02:05:40;;;;;;;9.73;7.47;;;4.00;99.90;;;;;;4924867;29;20459;-85
2023/01/20 02:08:27;;;;;;;12.40;8.13;;;4.10;99.90;;;;;;4924304;29;20490;-85
2023/01/20 02:11:18;;;;;;;14.50;8.10;;;4.20;99.90;;;;;;4922065;29;20451;-87
2023/01/20 02:13:48;;;;;;;13.03;7.23;;;4.10;99.90;;;;;;4913504;29;20575;-86
2023/01/20 02:17:01;;;;;;;12.63;8.27;;;4.30;99.90;;;;;;4927634;29;20473;-86
2023/01/20 02:20:00;;;;;;;11.90;8.50;;;4.20;99.90;;;;;;4925140;29;20450;-87
2023/01/20 02:22:58;;;;;;;9.27;7.77;;;4.20;99.90;;;;;;4920967;29;20467;-88
2023/01/20 02:26:01;;;;;;;12.80;8.47;;;4.30;99.90;;;;;;4920274;29;20469;-88
2023/01/20 02:29:04;;;;;;;13.73;7.23;;;4.20;99.90;;;;;;4917597;29;20545;-86
2023/01/20 02:32:25;;;;;;;12.57;7.23;;;4.10;99.90;;;;;;4923377;29;20938;-86
2023/01/20 02:47:08;;;;;;;10.00;7.70;;;3.90;99.90;;;;;;4835126;29;20441;-87
2023/01/20 02:50:56;;;;;;;;;;;;;;;;;;;;;
2023/01/20 02:54:27;;;;;;;9.63;7.10;;;4.00;99.90;;;;;;4777188;29;20470;-88
2023/01/20 02:58:31;;;;;;;;;;;;;;;;;;;;;
2023/01/20 03:06:17;;;;;;;9.87;7.73;;;4.00;99.90;;;;;;4770928;30;20568;-87
2023/01/20 03:13:49;;;;;;;12.60;8.27;;;3.80;99.90;;;;;;4812045;29;20497;-86
2023/01/20 03:24:20;;;;;;;11.07;8.47;;;4.10;99.90;;;;;;4787476;29;20496;-87
2023/01/20 03:31:51;;;;;;;;;;;;;;;;;;;;;
2023/01/20 03:42:16;;;;;;;12.63;8.27;;;3.90;99.90;;;;;;4843556;29;20465;-87
2023/01/20 03:53:52;;;;;;;14.50;8.50;;;4.10;99.90;;;;;;4792896;29;20468;-86
2023/01/20 04:01:02;;;;;;;;;;;;;;;;;;;;;
2023/01/20 04:08:20;;;;;;;15.57;9.03;;;4.20;99.90;;;;;;4847655;29;20484;-88
2023/01/20 04:11:12;;;;;;;12.30;7.60;;;4.20;99.90;;;;;;4831446;29;20458;-86
2023/01/20 04:18:41;;;;;;;14.73;8.20;;;4.20;99.90;;;;;;4772921;29;20598;-85
2023/01/20 04:22:15;;;;;;;;;;;;;;;;;;;;;
2023/01/20 04:25:39;;;;;;;;;;;;;;;;;;;;;
2023/01/20 04:40:58;;;;;;;;;;;;;;;;;;;;;
2023/01/20 04:48:16;;;;;;;13.30;8.80;;;4.30;99.90;;;;;;4861251;29;20558;-87
2023/01/20 04:51:45;;;;;;;17.17;9.17;;;4.00;99.90;;;;;;4855807;29;20510;-87
2023/01/20 04:55:25;;;;;;;18.50;9.20;;;4.00;99.90;;;;;;4832187;29;20602;-89
2023/01/20 05:02:33;;;;;;;13.90;9.50;;;4.40;99.90;;;;;;4818257;29;20478;-88
2023/01/20 05:05:40;;;;;;;14.87;9.33;;;4.40;99.90;;;;;;4817452;29;20483;-87
2023/01/20 05:09:17;;;;;;;15.50;10.57;;;4.40;99.90;;;;;;4784813;29;20516;-88
2023/01/20 05:13:04;;;;;;;16.40;8.60;;;4.40;99.90;;;;;;4741059;30;20585;-87
2023/01/20 05:16:48;;;;;;;13.03;8.30;;;4.50;99.90;;;;;;4799361;29;20532;-87
2023/01/20 05:20:19;;;;;;;;;;;;;;;;;;;;;
2023/01/20 05:23:57;;;;;;;14.17;8.43;;;4.40;99.90;;;;;;4817466;29;20509;-86
2023/01/20 05:27:59;;;;;;;13.07;8.77;;;4.30;99.90;;;;;;4765512;30;20585;-86
2023/01/20 05:31:15;;;;;;;14.17;8.30;;;4.20;99.90;;;;;;4739334;30;20473;-85
2023/01/20 05:35:05;;;;;;;14.00;8.00;;;4.20;99.90;;;;;;4726550;30;20601;-86
2023/01/20 05:38:17;;;;;;;13.83;9.77;;;4.40;99.90;;;;;;4710334;30;20462;-88
2023/01/20 05:49:03;;;;;;;13.40;8.67;;;4.30;99.90;;;;;;4800059;29;20582;-88
2023/01/20 05:52:23;;;;;;;12.87;8.60;;;4.30;99.90;;;;;;4821326;29;20467;-86
2023/01/20 05:55:28;;;;;;;14.50;9.10;;;4.20;99.90;;;;;;4802792;29;21062;-89
2023/01/20 05:59:12;;;;;;;;;;;;;;;;;;;;;
2023/01/20 06:06:23;;;;;;;10.63;6.90;;;4.30;99.90;;;;;;4822645;29;20554;-86
2023/01/20 06:09:56;;;;;;;9.10;6.43;;;4.30;99.40;;;;;;4817998;29;20478;-88
2023/01/20 06:13:16;;;;;;;11.20;6.47;;;4.10;99.40;;;;;;4835712;29;20666;-86
2023/01/20 06:16:44;;;;;;;10.03;6.23;;;4.10;99.80;;;;;;4836980;29;20478;-86
2023/01/20 06:19:59;;;;;;;8.50;6.87;;;4.10;99.90;;;;;;4871878;29;20532;-86
2023/01/20 06:23:14;;;;;;;9.10;6.63;;;4.10;99.80;;;;;;4871116;29;20468;-86
2023/01/20 06:33:16;;;;;;;9.10;5.80;;;4.30;99.50;;;;;;4877003;29;20570;-86
2023/01/20 06:44:59;;;;;;;;;;;;;;;;;;;;;
2023/01/20 07:23:10;;;;;;;6.63;4.70;;;3.90;99.80;;;;;;4848320;29;20472;-87
2023/01/20 07:30:17;;;;;;;;;;;;;;;;;;;;;
2023/01/20 07:33:34;;;;;;;8.87;5.33;;;3.80;99.10;;;;;;4832220;29;20444;-85
2023/01/20 07:37:04;;;;;;;6.83;4.50;;;3.70;99.20;;;;;;4832307;29;20884;-87
2023/01/20 07:40:14;;;;;;;9.10;4.67;;;3.70;98.70;;;;;;4837681;29;20456;-88
2023/01/20 07:47:24;;;;;;;7.10;5.60;;;3.80;98.50;;;;;;4828917;29;20462;-89
2023/01/20 07:50:45;;;;;;;9.23;5.50;;;3.80;98.30;;;;;;4782752;29;20528;-87
2023/01/20 07:53:36;;;;;;;9.23;6.07;;;3.90;98.10;;;;;;4780012;29;20502;-87
2023/01/20 07:56:46;;;;;;;8.37;5.13;;;3.90;97.80;;;;;;4793297;29;20897;-87
2023/01/20 08:00:14;;;;;;;7.40;5.10;;;4.10;97.80;;;;;;4739777;30;20510;-87
2023/01/20 08:04:08;;;;;;;9.83;5.30;;;4.00;97.50;;;;;;4742047;30;20567;-87
2023/01/20 08:07:32;;;;;;;5.43;4.40;;;4.00;97.70;;;;;;4715874;30;21039;-88
2023/01/20 08:11:21;;;;;;;;;;;;;;;;;;;;;
2023/01/20 08:33:47;;;;;;;;;;;;;;;;;;;;;
2023/01/20 08:48:53;;;;;;;8.47;5.13;;;4.00;97.40;;;;;;4911595;29;20490;-86
2023/01/20 08:52:04;;;;;;;21.93;10.00;;;4.10;97.60;;;;;;4894277;29;20514;-88
2023/01/20 08:55:31;;;;;;;7.60;5.20;;;4.20;97.20;;;;;;4900225;29;20455;-88
2023/01/20 09:03:19;;;;;;;7.50;5.70;;;4.40;97.30;;;;;;4897305;29;20494;-88
2023/01/20 09:07:07;;;;;;;6.93;4.63;;;4.50;96.80;;;;;;4848315;29;20677;-88
2023/01/20 09:10:33;;;;;;;7.93;5.53;;;4.60;96.80;;;;;;4807386;29;20565;-86
2023/01/20 09:14:23;;;;;;;7.47;5.30;;;4.40;97.10;;;;;;4839732;29;20458;-85
2023/01/20 09:21:39;;;;;;;;;;;;;;;;;;;;;
2023/01/20 09:25:11;;;;;;;7.77;5.50;;;4.70;96.60;;;;;;4841652;29;20577;-89
2023/01/20 09:32:24;;;;;;;7.20;4.70;;;4.90;96.10;;;;;;4824427;29;20471;-86
2023/01/20 09:35:47;;;;;;;7.20;5.23;;;4.90;95.60;;;;;;4777983;29;20474;-85
2023/01/20 09:46:33;;;;;;;8.10;4.93;;;4.90;95.90;;;;;;4750038;30;20460;-86
2023/01/20 10:00:35;;;;;;;5.93;4.93;;;5.10;95.40;;;;;;4754264;30;20460;-87
2023/01/20 10:19:14;;;;;;;;;;;;;;;;;;;;;
2023/01/20 10:26:53;;;;;;;5.63;4.70;;;5.30;94.70;;;;;;4829065;29;20465;-86
2023/01/20 10:30:39;;;;;;;9.93;5.67;;;5.40;94.20;;;;;;4775992;29;20489;-87
2023/01/20 10:34:18;;;;;;;7.03;4.93;;;5.40;94.60;;;;;;4778804;29;20514;-86
2023/01/20 10:43:55;;;;;;;8.73;5.50;;;5.50;94.70;;;;;;4844843;29;20482;-85
2023/01/20 10:47:14;;;;;;;6.20;4.47;;;5.40;94.50;;;;;;4831894;29;20540;-85
2023/01/20 10:50:33;;;;;;;6.87;5.00;;;5.50;94.00;;;;;;4885417;29;20444;-85
2023/01/20 10:53:57;;;;;;;7.20;4.70;;;5.30;94.00;;;;;;4903319;29;20423;-88
2023/01/20 10:57:12;;;;;;;7.33;5.70;;;5.40;94.30;;;;;;4888599;29;20475;-86
2023/01/20 11:00:57;;;;;;;12.00;6.10;;;5.40;94.30;;;;;;5018120;23;20478;-86
2023/01/20 11:04:13;;;;;;;8.57;5.90;;;5.30;94.40;;;;;;4942460;28;20469;-85
2023/01/20 11:07:20;;;;;;;7.00;5.97;;;5.30;94.70;;;;;;4939139;28;20462;-86
2023/01/20 11:10:41;;;;;;;6.63;4.63;;;5.30;94.90;;;;;;4904658;29;20482;-85
2023/01/20 11:14:16;;;;;;;10.27;6.30;;;5.40;94.80;;;;;;4912869;29;20447;-87
2023/01/20 11:17:19;;;;;;;10.17;6.20;;;5.30;95.20;;;;;;4933263;29;20659;-86
2023/01/20 11:20:29;;;;;;;8.13;5.70;;;5.20;95.60;;;;;;4919575;29;20490;-86
2023/01/20 11:23:37;;;;;;;6.73;4.77;;;5.20;95.80;;;;;;4912709;29;20475;-84
2023/01/20 11:30:49;;;;;;;;;;;;;;;;;;;;;
2023/01/20 11:34:27;;;;;;;8.87;6.40;;;5.10;96.30;;;;;;4905195;29;20484;-86
2023/01/20 11:37:43;;;;;;;7.20;5.40;;;5.10;96.40;;;;;;4844765;29;20533;-87
2023/01/20 11:44:21;;;;;;;8.00;6.17;;;4.90;96.80;;;;;;5127581;23;20482;-85
2023/01/20 11:47:39;;;;;;;6.07;4.70;;;4.90;97.10;;;;;;4932666;29;20467;-88
2023/01/20 11:50:48;;;;;;;;;;;;;;;;;;;;;
2023/01/20 11:57:48;;;;;;;10.37;7.07;;;4.90;97.90;;;;;;4915816;29;20534;-87
2023/01/20 12:05:37;;;;;;;7.77;6.30;;;5.20;98.00;;;;;;4910967;29;21010;-87
2023/01/20 12:16:38;;;;;;;;;;;;;;;;;;;;;
2023/01/20 12:24:02;;;;;;;12.27;6.90;;;5.10;97.50;;;;;;4918328;29;20476;-87
2023/01/20 12:31:16;;;;;;;;;;;;;;;;;;;;;
2023/01/20 12:34:46;;;;;;;;;;;;;;;;;;;;;
2023/01/20 12:41:12;;;;;;;9.87;6.20;;;5.30;98.20;;;;;;4895343;29;20471;-89
2023/01/20 12:44:36;;;;;;;;;;;;;;;;;;;;;
2023/01/20 12:48:23;;;;;;;7.60;5.13;;;5.00;99.10;;;;;;4865625;29;20564;-86
2023/01/20 12:52:16;;;;;;;7.10;5.10;;;4.90;99.90;;;;;;4820575;29;20459;-88
2023/01/20 12:55:38;;;;;;;7.00;4.47;;;4.70;99.90;;;;;;4812399;29;20517;-90
2023/01/20 13:02:36;;;;;;;8.50;5.73;;;4.60;99.90;;;;;;4891425;29;20501;-89
2023/01/20 13:05:37;;;;;;;9.10;5.73;;;4.60;99.90;;;;;;4885552;29;21459;-85
2023/01/20 13:08:59;;;;;;;7.67;5.70;;;4.50;99.90;;;;;;4907259;29;20494;-88
2023/01/20 13:12:05;;;;;;;10.23;6.60;;;4.40;99.90;;;;;;4931260;29;20443;-86
2023/01/20 13:14:59;;;;;;;9.83;7.13;;;4.30;99.90;;;;;;4916991;29;20465;-86
2023/01/20 13:18:14;;;;;;;10.90;7.23;;;4.40;99.90;;;;;;4908681;29;20496;-87
2023/01/20 13:21:01;;;;;;;9.80;7.67;;;4.20;99.90;;;;;;4919352;29;20447;-85
2023/01/20 13:23:44;;;;;;;9.83;6.47;;;4.20;99.90;;;;;;4921948;29;20462;-86
2023/01/20 13:26:39;;;;;;;12.17;7.87;;;4.10;99.90;;;;;;4920955;29;20466;-86
2023/01/20 13:29:38;;;;;;;13.43;8.87;;;4.20;99.90;;;;;;4905825;29;21014;-88
2023/01/20 13:32:47;;;;;;;11.80;8.27;;;4.30;99.90;;;;;;4928661;29;20490;-84
2023/01/20 13:36:12;;;;;;;11.90;7.50;;;4.20;99.90;;;;;;4929743;29;20447;-84
2023/01/20 13:39:39;;;;;;;8.57;6.63;;;4.10;99.90;;;;;;4925486;29;20496;-87
2023/01/20 13:46:47;;;;;;;9.53;6.43;;;4.20;99.90;;;;;;4917562;29;20457;-87
2023/01/20 13:50:04;;;;;;;11.37;8.27;;;4.20;99.90;;;;;;4920921;28;20485;-89
2023/01/20 13:53:06;;;;;;;16.67;8.10;;;4.00;99.90;;;;;;4908012;29;20456;-87
2023/01/20 13:56:07;;;;;;;11.27;7.20;;;4.10;99.90;;;;;;4930539;29;20463;-87
2023/01/20 13:58:54;;;;;;;8.87;6.87;;;3.80;99.90;;;;;;4924118;29;20483;-88
2023/01/20 14:01:53;;;;;;;15.47;8.40;;;4.00;99.90;;;;;;4912231;29;20467;-87
2023/01/20 14:04:32;;;;;;;8.87;6.20;;;3.90;99.90;;;;;;4911402;29;20494;-86
2023/01/20 14:07:53;;;;;;;13.00;7.60;;;3.80;99.90;;;;;;4837696;29;20442;-88
2023/01/20 14:10:30;;;;;;;10.33;6.83;;;3.70;99.90;;;;;;4824536;29;20477;-85
2023/01/20 14:13:22;;;;;;;13.20;8.90;;;3.60;99.90;;;;;;4838914;29;20470;-87
2023/01/20 14:16:25;;;;;;;16.47;7.63;;;3.60;99.90;;;;;;4842932;29;20498;-87
2023/01/20 14:20:03;;;;;;;9.43;7.50;;;3.60;99.90;;;;;;4845537;29;20486;-90
2023/01/20 14:22:46;;;;;;;14.30;8.70;;;3.60;99.90;;;;;;4822559;29;20466;-86
2023/01/20 14:25:56;;;;;;;14.43;8.93;;;3.60;99.90;;;;;;4840601;29;20482;-88
2023/01/20 14:28:53;;;;;;;7.20;5.50;;;3.70;99.90;;;;;;4837439;29;20494;-86
2023/01/20 14:32:16;;;;;;;11.27;7.57;;;3.70;99.90;;;;;;4837812;29;20478;-88
2023/01/20 14:35:32;;;;;;;16.13;8.97;;;3.60;99.90;;;;;;4836411;29;20546;-88
2023/01/20 14:38:44;;;;;;;12.90;8.80;;;3.70;99.90;;;;;;4839044;29;20535;-85
2023/01/20 14:42:06;;;;;;;13.13;7.97;;;3.70;99.90;;;;;;4827605;29;20451;-87
2023/01/20 14:45:21;;;;;;;13.80;9.07;;;3.70;99.90;;;;;;4896671;29;20532;-87
2023/01/20 14:48:09;;;;;;;13.87;8.73;;;3.70;99.90;;;;;;4910338;29;20483;-88
2023/01/20 14:51:22;;;;;;;8.40;6.73;;;3.80;99.90;;;;;;4922108;29;20469;-88
2023/01/20 14:54:32;;;;;;;6.40;4.70;;;3.90;99.90;;;;;;4917050;29;20462;-86
2023/01/20 14:58:20;;;;;;;6.30;5.30;;;3.80;99.90;;;;;;4917406;29;21735;-86
2023/01/20 15:01:19;;;;;;;10.20;6.83;;;3.70;99.90;;;;;;4856080;29;20601;-88
2023/01/20 15:04:15;;;;;;;11.17;6.70;;;3.70;99.90;;;;;;4852638;29;20468;-89
2023/01/20 15:10:26;;;;;;;9.23;6.33;;;3.60;99.90;;;;;;4854709;29;20466;-87
2023/01/20 15:14:14;;;;;;;;;;;;;;;;;;;;;
2023/01/20 15:16:54;;;;;;;11.17;8.03;;;3.50;99.90;;;;;;4838852;29;20458;-85
2023/01/20 15:20:31;;;;;;;;;;;;;;;;;;;;;
2023/01/20 15:23:40;;;;;;;10.27;7.10;;;3.70;99.90;;;;;;4825787;29;20477;-87
2023/01/20 15:26:33;;;;;;;11.03;7.27;;;3.80;99.90;;;;;;4837180;29;20893;-87
2023/01/20 15:29:36;;;;;;;13.10;7.37;;;3.80;99.90;;;;;;4879994;29;20538;-88
2023/01/20 15:32:25;;;;;;;12.53;8.73;;;3.70;99.90;;;;;;4934204;29;20477;-88
2023/01/20 15:35:21;;;;;;;15.30;9.40;;;3.60;99.90;;;;;;4930063;29;20467;-87
2023/01/20 15:38:22;;;;;;;11.80;9.17;;;3.70;99.90;;;;;;4914496;29;20527;-84
2023/01/20 15:41:23;;;;;;;11.13;7.30;;;3.60;99.90;;;;;;4879153;29;21383;-88
2023/01/20 15:47:35;;;;;;;13.50;10.20;;;3.60;99.90;;;;;;4918230;29;20470;-88
2023/01/20 15:50:30;;;;;;;15.27;8.90;;;3.70;99.90;;;;;;4936869;29;20481;-87
2023/01/20 15:53:55;;;;;;;14.47;10.27;;;3.70;99.90;;;;;;4931363;29;20433;-86
2023/01/20 15:56:40;;;;;;;16.20;12.73;;;3.70;99.90;;;;;;4946548;28;20473;-88
2023/01/20 15:59:34;;;;;;;9.90;7.73;;;3.80;99.90;;;;;;4944975;28;21605;-89
2023/01/20 16:02:36;;;;;;;12.30;9.47;;;3.70;99.90;;;;;;4927415;29;20446;-88
2023/01/20 16:05:57;;;;;;;17.00;9.90;;;3.70;99.90;;;;;;4921149;29;20486;-87
2023/01/20 16:09:39;;;;;;;;;;;;;;;;;;;;;
2023/01/20 16:12:26;;;;;;;14.90;9.87;;;3.70;99.90;;;;;;4929308;29;20477;-85
2023/01/20 16:15:40;;;;;;;13.20;8.40;;;3.70;99.90;;;;;;4926006;29;20473;-90
2023/01/20 16:18:58;;;;;;;12.07;9.10;;;3.70;99.90;;;;;;4921942;29;20491;-87
2023/01/20 16:25:49;;;;;;;15.07;8.20;;;3.70;99.90;;;;;;4913102;29;20478;-89
2023/01/20 16:28:42;;;;;;;15.43;8.73;;;3.80;99.90;;;;;;4869696;29;20592;-86
2023/01/20 16:31:32;;;;;;;14.30;9.30;;;3.80;99.90;;;;;;4892345;29;20456;-88
2023/01/20 16:37:57;;;;;;;11.67;7.90;;;3.80;99.90;;;;;;4884059;29;20472;-87
2023/01/20 16:45:07;;;;;;;11.27;7.43;;;3.80;99.90;;;;;;4881205;29;20487;-87
2023/01/20 16:48:13;;;;;;;;;;;;;;;;;;;;;
2023/01/20 16:51:19;;;;;;;9.93;7.13;;;3.80;99.90;;;;;;4878859;29;20513;-89
2023/01/20 16:54:31;;;;;;;11.50;8.00;;;3.70;99.90;;;;;;4870563;29;20456;-89
2023/01/20 16:57:11;;;;;;;11.70;7.30;;;3.60;99.90;;;;;;4883635;29;20480;-88
2023/01/20 17:00:11;;;;;;;10.27;6.80;;;3.70;99.90;;;;;;4846676;29;20475;-88
2023/01/20 17:02:56;;;;;;;8.50;6.70;;;3.70;99.90;;;;;;4888637;29;20505;-85
2023/01/20 17:06:24;;;;;;;10.47;7.90;;;3.70;99.90;;;;;;4889352;29;20550;-86
2023/01/20 17:09:33;;;;;;;10.40;6.97;;;3.70;99.90;;;;;;4929952;29;20522;-87
2023/01/20 17:12:25;;;;;;;10.03;8.27;;;3.70;99.90;;;;;;4928774;29;20472;-84
2023/01/20 17:15:03;;;;;;;8.40;6.67;;;3.60;99.90;;;;;;4919148;29;20500;-87
2023/01/20 17:17:57;;;;;;;11.90;7.97;;;3.60;99.90;;;;;;4916819;29;20473;-86
2023/01/20 17:20:33;;;;;;;9.10;6.83;;;3.70;99.90;;;;;;4917311;29;21201;-86
2023/01/20 17:23:28;;;;;;;9.30;8.10;;;3.80;99.90;;;;;;4925096;29;20442;-89
2023/01/20 17:26:15;;;;;;;8.73;6.97;;;3.80;99.90;;;;;;4926674;29;21976;-87
2023/01/20 17:29:20;;;;;;;8.67;6.33;;;3.80;99.90;;;;;;4914045;29;20478;-87
2023/01/20 17:32:18;;;;;;;;;;;;;;;;;;;;;
2023/01/20 17:35:10;;;;;;;7.93;6.63;;;3.80;99.90;;;;;;4908554;29;20504;-89
2023/01/20 17:38:01;;;;;;;8.17;6.70;;;3.70;99.90;;;;;;4864745;29;20488;-88
2023/01/20 17:41:07;;;;;;;10.50;7.23;;;3.70;99.90;;;;;;4864707;29;20467;-87
2023/01/20 17:44:19;;;;;;;6.80;6.07;;;3.70;99.90;;;;;;4878946;29;20467;-85
2023/01/20 17:47:02;;;;;;;6.30;5.23;;;3.70;99.90;;;;;;4884017;29;20465;-86
2023/01/20 17:50:03;;;;;;;9.73;7.67;;;3.70;99.90;;;;;;4884859;29;20463;-86
2023/01/20 17:52:52;;;;;;;8.33;6.47;;;3.50;99.90;;;;;;4883876;29;20484;-86
2023/01/20 17:55:31;;;;;;;9.80;7.03;;;3.60;99.90;;;;;;4876201;29;20496;-86
2023/01/20 17:58:29;;;;;;;7.43;6.33;;;3.50;99.90;;;;;;4878568;29;20488;-86
2023/01/20 18:01:51;;;;;;;8.97;6.30;;;3.50;99.90;;;;;;4865555;29;20526;-87
2023/01/20 18:05:17;;;;;;;;;;;;;;;;;;;;;
2023/01/20 18:08:10;;;;;;;10.10;7.90;;;3.50;99.90;;;;;;4914376;29;20518;-84
2023/01/20 18:11:23;;;;;;;10.53;8.00;;;3.60;99.90;;;;;;4925675;29;22353;-85
2023/01/20 18:14:05;;;;;;;10.87;7.60;;;3.60;99.90;;;;;;4917093;29;20451;-86
2023/01/20 18:20:16;;;;;;;;;;;;;;;;;;;;;
2023/01/20 18:22:57;;;;;;;9.07;7.90;;;3.50;99.90;;;;;;4911705;29;20473;-88
2023/01/20 18:29:43;;;;;;;10.23;7.17;;;3.60;99.90;;;;;;4918811;29;20459;-86
2023/01/20 18:42:20;;;;;;;8.90;7.17;;;3.50;99.90;;;;;;4932243;29;20476;-86
2023/01/20 18:45:25;;;;;;;9.43;7.40;;;3.50;99.90;;;;;;4936206;29;20478;-87
2023/01/20 18:48:09;;;;;;;10.37;7.37;;;3.50;99.90;;;;;;4945127;28;20490;-87
2023/01/20 18:51:37;;;;;;;10.80;7.53;;;3.40;99.90;;;;;;4935049;29;20462;-89
2023/01/20 18:54:28;;;;;;;9.63;7.50;;;3.30;99.90;;;;;;4938872;29;20461;-88
2023/01/20 18:57:24;;;;;;;8.90;7.37;;;3.40;99.90;;;;;;4952380;28;21608;-89
2023/01/20 19:00:16;;;;;;;11.27;9.13;;;3.40;99.90;;;;;;4932951;29;20501;-90
2023/01/20 19:02:59;;;;;;;11.83;8.47;;;3.30;99.90;;;;;;4946470;28;20502;-89
2023/01/20 19:06:37;;;;;;;12.10;9.07;;;3.30;99.90;;;;;;4918182;29;20493;-87
2023/01/20 19:09:27;;;;;;;10.37;6.93;;;3.30;99.90;;;;;;4939082;28;20461;-87
2023/01/20 19:12:08;;;;;;;11.37;8.73;;;3.30;99.90;;;;;;4911194;29;20985;-87
2023/01/20 19:15:21;;;;;;;12.20;7.90;;;3.40;99.90;;;;;;4914281;29;20490;-88
2023/01/20 19:17:56;;;;;;;11.30;7.60;;;3.40;99.90;;;;;;4948785;28;20519;-87
2023/01/20 19:21:10;;;;;;;13.70;8.53;;;3.40;99.90;;;;;;4933843;29;20480;-86
2023/01/20 19:24:15;;;;;;;10.63;8.10;;;3.30;99.90;;;;;;4949930;28;20467;-87
2023/01/20 19:26:46;;;;;;;10.17;8.83;;;3.40;99.90;;;;;;4934425;29;20581;-86
2023/01/20 19:29:28;;;;;;;12.93;8.70;;;3.40;99.90;;;;;;4947364;28;20887;-86
2023/01/20 19:32:15;;;;;;;12.27;9.27;;;3.40;99.90;;;;;;4945796;28;20467;-87
2023/01/20 19:35:13;;;;;;;12.17;8.60;;;3.30;99.90;;;;;;4935559;29;20465;-86
2023/01/20 19:38:35;;;;;;;11.20;8.60;;;3.30;99.90;;;;;;4946472;28;20463;-87
2023/01/20 19:41:25;;;;;;;13.60;9.77;;;3.40;99.90;;;;;;4932599;29;20637;-88
2023/01/20 19:44:18;;;;;;;11.63;8.90;;;3.60;99.90;;;;;;4936216;29;20477;-87
2023/01/20 19:47:05;;;;;;;12.13;8.77;;;3.50;99.90;;;;;;4949286;28;20500;-88
2023/01/20 19:53:13;;;;;;;12.37;9.00;;;3.10;99.90;;;;;;4935845;29;20453;-88
2023/01/20 19:56:01;;;;;;;11.77;9.13;;;3.20;99.90;;;;;;4935753;29;21022;-88
2023/01/20 19:58:42;;;;;;;15.87;10.97;;;3.30;99.90;;;;;;4933224;29;20501;-88
2023/01/20 20:01:28;;;;;;;12.07;9.17;;;3.30;99.90;;;;;;4937226;29;20457;-88
2023/01/20 20:04:36;;;;;;;11.37;9.60;;;3.40;99.90;;;;;;4951335;28;20462;-89
2023/01/20 20:07:16;;;;;;;13.13;9.80;;;3.30;99.90;;;;;;4935220;29;20472;-86
2023/01/20 20:12:59;;;;;;;13.20;9.97;;;3.20;99.90;;;;;;4939395;29;20481;-88
2023/01/20 20:15:43;;;;;;;16.43;10.97;;;3.10;99.90;;;;;;4937615;29;20467;-88
2023/01/20 20:18:50;;;;;;;12.90;10.80;;;3.10;99.90;;;;;;4937310;29;20494;-88
2023/01/20 20:21:20;;;;;;;14.70;10.67;;;3.00;99.90;;;;;;4954391;28;20452;-89
2023/01/20 20:23:59;;;;;;;15.87;11.60;;;3.10;99.90;;;;;;4954702;28;20929;-88
2023/01/20 20:26:41;;;;;;;13.70;9.73;;;3.20;99.90;;;;;;4943666;29;20485;-88
2023/01/20 20:29:28;;;;;;;18.23;11.20;;;3.10;99.90;;;;;;4950235;29;20484;-89
2023/01/20 20:32:04;;;;;;;16.80;11.57;;;3.10;99.90;;;;;;4957696;28;20473;-87
2023/01/20 20:35:09;;;;;;;16.33;10.90;;;3.10;99.90;;;;;;4947304;28;20719;-86
2023/01/20 20:37:50;;;;;;;17.50;12.20;;;3.20;99.90;;;;;;4936690;29;21922;-88
2023/01/20 20:40:47;;;;;;;16.97;12.40;;;3.30;99.90;;;;;;4943699;29;20513;-87
2023/01/20 20:43:49;;;;;;;16.57;11.20;;;3.20;99.90;;;;;;4953006;28;20504;-87
2023/01/20 20:47:11;;;;;;;18.77;11.63;;;3.10;99.90;;;;;;4940090;29;20498;-86
2023/01/20 20:50:11;;;;;;;18.10;12.03;;;3.00;99.90;;;;;;4940247;28;20466;-85
2023/01/20 20:52:59;;;;;;;18.00;12.87;;;3.00;99.90;;;;;;4937067;28;20476;-83
2023/01/20 20:56:02;;;;;;;22.40;12.97;;;3.00;99.90;;;;;;4932787;29;20462;-89
2023/01/20 20:59:23;;;;;;;16.10;11.33;;;3.00;99.90;;;;;;4934043;29;21853;-88
2023/01/20 21:01:56;;;;;;;17.23;12.20;;;2.90;99.90;;;;;;4939977;29;20458;-88
2023/01/20 21:04:46;;;;;;;18.47;12.90;;;3.10;99.90;;;;;;4937006;29;20465;-88
2023/01/20 21:10:28;;;;;;;19.73;11.43;;;3.20;99.90;;;;;;4937663;28;20460;-87
2023/01/20 21:13:32;;;;;;;17.70;11.97;;;3.10;99.90;;;;;;4946366;28;20475;-88
2023/01/20 21:16:15;;;;;;;16.20;12.00;;;3.20;99.90;;;;;;4936758;29;20615;-87
2023/01/20 21:18:47;;;;;;;18.13;12.70;;;3.20;99.90;;;;;;4928906;29;21250;-86
2023/01/20 21:21:49;;;;;;;22.30;12.13;;;3.10;99.90;;;;;;4946373;28;20454;-87
2023/01/20 21:24:55;;;;;;;20.27;13.27;;;3.10;99.90;;;;;;4914899;29;20485;-86
2023/01/20 21:27:51;;;;;;;20.00;13.23;;;3.10;99.90;;;;;;4947847;28;20489;-86
2023/01/20 21:30:26;;;;;;;20.67;12.97;;;3.10;99.90;;;;;;4946821;28;20544;-86
2023/01/20 21:33:22;;;;;;;17.70;11.63;;;3.10;99.90;;;;;;4939795;29;20611;-86
2023/01/20 21:36:11;;;;;;;18.97;11.10;;;3.10;99.90;;;;;;4952593;29;20539;-87
2023/01/20 21:39:02;;;;;;;18.07;12.93;;;3.10;99.90;;;;;;4948618;29;20506;-89
2023/01/20 21:42:11;;;;;;;18.93;12.10;;;3.00;99.90;;;;;;4948596;28;20447;-89
2023/01/20 21:45:25;;;;;;;16.60;11.10;;;3.00;99.90;;;;;;4950212;28;20497;-86
2023/01/20 21:54:57;;;;;;;18.80;11.50;;;3.10;99.90;;;;;;4858302;29;20510;-85
2023/01/20 21:57:55;;;;;;;19.03;11.37;;;3.00;99.90;;;;;;4845513;29;21177;-87
2023/01/20 22:00:35;;;;;;;15.03;11.17;;;2.90;99.90;;;;;;4845304;29;20449;-87
2023/01/20 22:03:10;;;;;;;15.43;10.17;;;2.90;99.90;;;;;;4861694;29;20568;-86
2023/01/20 22:06:24;;;;;;;16.90;10.97;;;2.90;99.90;;;;;;4857996;29;20507;-88
2023/01/20 22:09:08;;;;;;;14.90;10.50;;;2.90;99.90;;;;;;4844791;29;20517;-88